Repubbli Del Brasile — IBZB — position and weather

sailwx.info

Track history (hours):
 
Tides and Currents Weather Stations Pressure Air Temp Water Temp Dewpoint Dewpoint Depression Visibility Wind Speed Wind Dir Waves Ship Positions

Repubbli Del Brasile

Last reported at 2016-Dec-07 18:25 UTC. Time now 2016-Dec-09 09:43 UTC.
Position N 35°58' W 005°32'.

Length 209 m; draft 9.5 m.

Type: Ship (hazmat cat B). MMSI: 247310000.

Date/timePositionNaut miles runAvg speedWind from/ knotsBaromVisibWave heightAir tempDewpointWater temp
2016-Dec-07 18:25N 35°58' W 005°32'1214.5
2016-Dec-07 17:34N 36°02' W 005°17'12614.9
2016-Dec-07 09:04N 36°21' W 002°42'816.3
2016-Dec-07 08:33N 36°22' W 002°32'1616.1
2016-Dec-07 07:33N 36°25' W 002°13'  
2016-Dec-02 20:33N 43°09' E 010°04'1514.6
2016-Dec-02 19:33N 43°24' E 010°08'1110.9
2016-Dec-02 18:33N 43°32' E 010°17'2 2.0
2016-Dec-02 17:33N 43°34' E 010°18'0 0.0
2016-Dec-02 16:33N 43°34' E 010°18'0 0.0
2016-Dec-02 15:32N 43°34' E 010°18'0 0.0
2016-Dec-02 14:32N 43°34' E 010°18'0 0.0
2016-Dec-02 13:32N 43°34' E 010°18'0 0.0
2016-Dec-02 12:28N 43°34' E 010°18'0 0.0
2016-Dec-02 11:28N 43°34' E 010°18'0 0.0
2016-Dec-02 10:33N 43°34' E 010°18'0 0.0
2016-Dec-02 09:33N 43°34' E 010°18'0 0.0
2016-Dec-02 08:32N 43°34' E 010°18'0 0.0
2016-Dec-02 07:29N 43°34' E 010°18'0 0.2
2016-Dec-02 06:34N 43°34' E 010°18'6 5.9
2016-Dec-02 05:33N 43°30' E 010°13'1514.8
2016-Dec-02 04:34N 43°32' E 009°53'1616.3
2016-Dec-02 03:33N 43°43' E 009°35'1616.3
2016-Dec-02 02:33N 43°53' E 009°18'1615.8
2016-Dec-02 01:33N 44°07' E 009°07'1616.0
2016-Dec-02 00:34N 44°21' E 008°58'4 4.4
2016-Dec-01 23:33N 44°24' E 008°53'0 0.0
2016-Dec-01 22:29N 44°24' E 008°53'0 0.0
2016-Dec-01 21:32N 44°24' E 008°53'0 0.0
2016-Dec-01 20:32N 44°24' E 008°53'0 0.0
2016-Dec-01 19:31N 44°24' E 008°53'0 0.0
2016-Dec-01 18:31N 44°24' E 008°53'0 0.0
2016-Dec-01 17:33N 44°24' E 008°53'0 0.0
2016-Dec-01 16:33N 44°24' E 008°53'0 0.0
2016-Dec-01 15:32N 44°24' E 008°53'0 0.0
2016-Dec-01 14:29N 44°24' E 008°53'0 0.0
2016-Dec-01 13:32N 44°24' E 008°53'0 0.0
2016-Dec-01 12:28N 44°24' E 008°53'0 0.0
2016-Dec-01 11:31N 44°24' E 008°53'0 0.0
2016-Dec-01 10:33N 44°24' E 008°53'0 0.0
2016-Dec-01 09:33N 44°24' E 008°53'0 0.0
2016-Dec-01 08:33N 44°24' E 008°53'0 0.0
2016-Dec-01 07:32N 44°24' E 008°53'0 0.0
2016-Dec-01 06:32N 44°24' E 008°53'0 0.0
2016-Dec-01 05:31N 44°24' E 008°53'0 0.0
2016-Dec-01 04:31N 44°24' E 008°53'0 0.0
2016-Dec-01 03:33N 44°24' E 008°53'0 0.0
2016-Dec-01 02:33N 44°24' E 008°53'0 0.0
2016-Dec-01 01:33N 44°24' E 008°53'0 0.0
2016-Dec-01 00:32N 44°24' E 008°53'0 0.0
2016-Nov-30 23:32N 44°24' E 008°53'0 0.0
2016-Nov-30 22:32N 44°24' E 008°53'4 3.7
2016-Nov-30 21:33N 44°23' E 008°58'3 3.3
2016-Nov-30 20:33N 44°22' E 009°02'0 0.1
2016-Nov-30 19:33N 44°21' E 009°02'0 0.0
2016-Nov-30 18:33N 44°21' E 009°02'0 0.0
2016-Nov-30 17:33N 44°21' E 009°02'0 0.0
2016-Nov-30 16:33N 44°21' E 009°02'0 0.0
2016-Nov-30 15:33N 44°21' E 009°02'0 0.0
2016-Nov-30 14:33N 44°21' E 009°02'0 0.0
2016-Nov-30 13:33N 44°21' E 009°02'0 0.0
2016-Nov-30 12:33N 44°21' E 009°02'0 0.0
2016-Nov-30 11:33N 44°21' E 009°02'0 0.0
2016-Nov-30 10:33N 44°21' E 009°02'0 0.0
2016-Nov-30 09:33N 44°21' E 009°02'0 0.0
2016-Nov-30 08:33N 44°21' E 009°02'0 0.0
2016-Nov-30 07:33N 44°21' E 009°02'0 0.0
2016-Nov-30 06:33N 44°21' E 009°02'0 0.0
2016-Nov-30 05:33N 44°21' E 009°02'0 0.0
2016-Nov-30 04:33N 44°21' E 009°02'0 0.0
2016-Nov-30 03:33N 44°21' E 009°02'0 0.0
2016-Nov-30 02:33N 44°21' E 009°02'0 0.0
2016-Nov-30 01:33N 44°21' E 009°02'0 0.1
2016-Nov-30 00:33N 44°21' E 009°02'0 0.0
2016-Nov-29 23:33N 44°21' E 009°02'0 0.0
2016-Nov-29 22:33N 44°21' E 009°02'0 0.0
2016-Nov-29 21:33N 44°21' E 009°02'0 0.0
2016-Nov-29 20:33N 44°21' E 009°02'0 0.0
2016-Nov-29 19:33N 44°21' E 009°02'0 0.5
2016-Nov-29 18:33N 44°21' E 009°02'1110.9
2016-Nov-29 17:33N 44°15' E 008°50'1212.2
2016-Nov-29 16:33N 44°07' E 008°37'1212.1
2016-Nov-29 15:33N 43°58' E 008°24'14510.1
2016-Nov-29 01:11N 43°09' E 005°16'812.2
2016-Nov-29 00:33N 43°15' E 005°09'  
Track history (hours):
 
Tides and Currents Weather Stations Pressure Air Temp Water Temp Dewpoint Dewpoint Depression Visibility Wind Speed Wind Dir Waves Ship Positions

Repubbli Del Brasile

Last reported at 2016-Dec-07 18:25 UTC. Time now 2016-Dec-09 09:43 UTC.
Position N 35°58' W 005°32'.

Length 209 m; draft 9.5 m.

Type: Ship (hazmat cat B). MMSI: 247310000.

Date/timePositionNaut miles runAvg speedWind from/ knotsBaromVisibWave heightAir tempDewpointWater temp
2016-Dec-07 18:25N 35°58' W 005°32'1214.5
2016-Dec-07 17:34N 36°02' W 005°17'12614.9
2016-Dec-07 09:04N 36°21' W 002°42'816.3
2016-Dec-07 08:33N 36°22' W 002°32'1616.1
2016-Dec-07 07:33N 36°25' W 002°13'  
2016-Dec-02 20:33N 43°09' E 010°04'1514.6
2016-Dec-02 19:33N 43°24' E 010°08'1110.9
2016-Dec-02 18:33N 43°32' E 010°17'2 2.0
2016-Dec-02 17:33N 43°34' E 010°18'0 0.0
2016-Dec-02 16:33N 43°34' E 010°18'0 0.0
2016-Dec-02 15:32N 43°34' E 010°18'0 0.0
2016-Dec-02 14:32N 43°34' E 010°18'0 0.0
2016-Dec-02 13:32N 43°34' E 010°18'0 0.0
2016-Dec-02 12:28N 43°34' E 010°18'0 0.0
2016-Dec-02 11:28N 43°34' E 010°18'0 0.0
2016-Dec-02 10:33N 43°34' E 010°18'0 0.0
2016-Dec-02 09:33N 43°34' E 010°18'0 0.0
2016-Dec-02 08:32N 43°34' E 010°18'0 0.0
2016-Dec-02 07:29N 43°34' E 010°18'0 0.2
2016-Dec-02 06:34N 43°34' E 010°18'6 5.9
2016-Dec-02 05:33N 43°30' E 010°13'1514.8
2016-Dec-02 04:34N 43°32' E 009°53'1616.3
2016-Dec-02 03:33N 43°43' E 009°35'1616.3
2016-Dec-02 02:33N 43°53' E 009°18'1615.8
2016-Dec-02 01:33N 44°07' E 009°07'1616.0
2016-Dec-02 00:34N 44°21' E 008°58'4 4.4
2016-Dec-01 23:33N 44°24' E 008°53'0 0.0
2016-Dec-01 22:29N 44°24' E 008°53'0 0.0
2016-Dec-01 21:32N 44°24' E 008°53'0 0.0
2016-Dec-01 20:32N 44°24' E 008°53'0 0.0
2016-Dec-01 19:31N 44°24' E 008°53'0 0.0
2016-Dec-01 18:31N 44°24' E 008°53'0 0.0
2016-Dec-01 17:33N 44°24' E 008°53'0 0.0
2016-Dec-01 16:33N 44°24' E 008°53'0 0.0
2016-Dec-01 15:32N 44°24' E 008°53'0 0.0
2016-Dec-01 14:29N 44°24' E 008°53'0 0.0
2016-Dec-01 13:32N 44°24' E 008°53'0 0.0
2016-Dec-01 12:28N 44°24' E 008°53'0 0.0
2016-Dec-01 11:31N 44°24' E 008°53'0 0.0
2016-Dec-01 10:33N 44°24' E 008°53'0 0.0
2016-Dec-01 09:33N 44°24' E 008°53'0 0.0
2016-Dec-01 08:33N 44°24' E 008°53'0 0.0
2016-Dec-01 07:32N 44°24' E 008°53'0 0.0
2016-Dec-01 06:32N 44°24' E 008°53'0 0.0
2016-Dec-01 05:31N 44°24' E 008°53'0 0.0
2016-Dec-01 04:31N 44°24' E 008°53'0 0.0
2016-Dec-01 03:33N 44°24' E 008°53'0 0.0
2016-Dec-01 02:33N 44°24' E 008°53'0 0.0
2016-Dec-01 01:33N 44°24' E 008°53'0 0.0
2016-Dec-01 00:32N 44°24' E 008°53'0 0.0
2016-Nov-30 23:32N 44°24' E 008°53'0 0.0
2016-Nov-30 22:32N 44°24' E 008°53'4 3.7
2016-Nov-30 21:33N 44°23' E 008°58'3 3.3
2016-Nov-30 20:33N 44°22' E 009°02'0 0.1
2016-Nov-30 19:33N 44°21' E 009°02'0 0.0
2016-Nov-30 18:33N 44°21' E 009°02'0 0.0
2016-Nov-30 17:33N 44°21' E 009°02'0 0.0
2016-Nov-30 16:33N 44°21' E 009°02'0 0.0
2016-Nov-30 15:33N 44°21' E 009°02'0 0.0
2016-Nov-30 14:33N 44°21' E 009°02'0 0.0
2016-Nov-30 13:33N 44°21' E 009°02'0 0.0
2016-Nov-30 12:33N 44°21' E 009°02'0 0.0
2016-Nov-30 11:33N 44°21' E 009°02'0 0.0
2016-Nov-30 10:33N 44°21' E 009°02'0 0.0
2016-Nov-30 09:33N 44°21' E 009°02'0 0.0
2016-Nov-30 08:33N 44°21' E 009°02'0 0.0
2016-Nov-30 07:33N 44°21' E 009°02'0 0.0
2016-Nov-30 06:33N 44°21' E 009°02'0 0.0
2016-Nov-30 05:33N 44°21' E 009°02'0 0.0
2016-Nov-30 04:33N 44°21' E 009°02'0 0.0
2016-Nov-30 03:33N 44°21' E 009°02'0 0.0
2016-Nov-30 02:33N 44°21' E 009°02'0 0.0
2016-Nov-30 01:33N 44°21' E 009°02'0 0.1
2016-Nov-30 00:33N 44°21' E 009°02'0 0.0
2016-Nov-29 23:33N 44°21' E 009°02'0 0.0
2016-Nov-29 22:33N 44°21' E 009°02'0 0.0
2016-Nov-29 21:33N 44°21' E 009°02'0 0.0
2016-Nov-29 20:33N 44°21' E 009°02'0 0.0
2016-Nov-29 19:33N 44°21' E 009°02'0 0.5
2016-Nov-29 18:33N 44°21' E 009°02'1110.9
2016-Nov-29 17:33N 44°15' E 008°50'1212.2
2016-Nov-29 16:33N 44°07' E 008°37'1212.1
2016-Nov-29 15:33N 43°58' E 008°24'14510.1
2016-Nov-29 01:11N 43°09' E 005°16'812.2
2016-Nov-29 00:33N 43°15' E 005°09'  

Dump ship's entire track history